createdAt,value
2022-12-15T00:02:38.888Z,100544.31
2022-12-15T00:05:25.714Z,100543.44
2022-12-15T00:08:11.106Z,100544.84
2022-12-15T00:10:56.831Z,100530.25
2022-12-15T00:13:42.763Z,100536.25
2022-12-15T00:16:28.729Z,100546.72
2022-12-15T00:19:14.233Z,100549.13
2022-12-15T00:21:59.815Z,100554.16
2022-12-15T00:24:49.740Z,100563.50
2022-12-15T00:27:35.715Z,100560.97
2022-12-15T00:30:23.079Z,100537.97
2022-12-15T00:33:09.077Z,100556.31
2022-12-15T00:35:56.213Z,100562.31
2022-12-15T00:38:44.261Z,100553.44
2022-12-15T00:41:13.958Z,100556.72
2022-12-15T00:43:41.405Z,100558.72
2022-12-15T00:46:27.503Z,100563.13
2022-12-15T00:48:54.708Z,100557.44
2022-12-15T00:51:21.742Z,100569.19
2022-12-15T00:54:08.417Z,100573.31
2022-12-15T00:56:56.513Z,100569.66
2022-12-15T00:59:41.971Z,100565.28
2022-12-15T01:02:27.389Z,100566.03
2022-12-15T01:05:13.170Z,100575.13
2022-12-15T01:07:58.630Z,100574.53
2022-12-15T01:10:44.595Z,100584.84
2022-12-15T01:13:32.067Z,100571.91
2022-12-15T01:16:17.824Z,100577.53
2022-12-15T01:19:03.141Z,100571.25
2022-12-15T01:21:32.182Z,100587.28
2022-12-15T01:23:59.135Z,100587.28
2022-12-15T01:26:26.089Z,100576.69
2022-12-15T01:28:53.126Z,100578.97
2022-12-15T01:31:20.145Z,100589.81
2022-12-15T01:33:47.340Z,100576.56
2022-12-15T01:36:14.374Z,100588.03
2022-12-15T01:38:41.429Z,100594.31
2022-12-15T01:41:12.350Z,100606.91
2022-12-15T01:43:41.172Z,100596.19
2022-12-15T01:46:17.783Z,100605.91
2022-12-15T01:48:59.736Z,100590.56
2022-12-15T01:51:32.156Z,100600.63
2022-12-15T01:54:11.045Z,100598.13
2022-12-15T01:56:43.222Z,100615.00
2022-12-15T01:59:15.143Z,100609.81
2022-12-15T02:01:42.413Z,100623.69
2022-12-15T02:04:10.059Z,100621.03
2022-12-15T02:06:37.511Z,100620.28
2022-12-15T02:09:07.544Z,100615.13
2022-12-15T02:11:49.468Z,100624.44
2022-12-15T02:14:39.930Z,100615.97
2022-12-15T02:17:22.996Z,100621.66
2022-12-15T02:20:06.190Z,100624.19
2022-12-15T02:22:48.244Z,100618.28
2022-12-15T02:25:38.286Z,100619.78
2022-12-15T02:28:10.332Z,100624.06
2022-12-15T02:30:40.314Z,100624.06
2022-12-15T02:33:15.078Z,100623.31
2022-12-15T02:36:02.188Z,100622.94
2022-12-15T02:38:37.073Z,100617.16
2022-12-15T02:41:10.119Z,100618.75
2022-12-15T02:43:38.964Z,100608.19
2022-12-15T02:46:32.218Z,100624.06
2022-12-15T02:49:23.810Z,100624.94
2022-12-15T02:52:11.290Z,100623.91
2022-12-15T02:55:01.839Z,100621.28
2022-12-15T02:57:43.974Z,100621.06
2022-12-15T03:00:12.672Z,100624.31
2022-12-15T03:02:44.410Z,100630.13
2022-12-15T03:05:13.105Z,100632.25
2022-12-15T03:07:42.707Z,100644.97
2022-12-15T03:10:13.065Z,100642.94
2022-12-15T03:12:40.196Z,100643.69
2022-12-15T03:15:07.764Z,100639.28
2022-12-15T03:17:34.744Z,100639.81
2022-12-15T03:20:02.757Z,100649.25
2022-12-15T03:22:29.868Z,100629.09
2022-12-15T03:24:57.218Z,100649.25
2022-12-15T03:27:24.242Z,100634.25
2022-12-15T03:29:51.272Z,100642.44
2022-12-15T03:32:18.374Z,100642.31
2022-12-15T03:34:45.556Z,100646.47
2022-12-15T03:37:12.536Z,100630.06
2022-12-15T03:39:39.543Z,100651.25
2022-12-15T03:42:07.445Z,100652.75
2022-12-15T03:44:34.600Z,100648.47
2022-12-15T03:47:03.700Z,100651.00
2022-12-15T03:49:31.059Z,100656.78
2022-12-15T03:51:58.075Z,100652.50
2022-12-15T03:54:25.138Z,100658.66
2022-12-15T03:56:52.166Z,100662.31
2022-12-15T03:59:19.480Z,100645.84
2022-12-15T04:01:49.082Z,100645.31
2022-12-15T04:04:16.356Z,100639.16
2022-12-15T04:06:43.447Z,100648.59
2022-12-15T04:09:10.923Z,100651.88
2022-12-15T04:11:37.992Z,100649.22
2022-12-15T04:14:06.207Z,100637.38
2022-12-15T04:16:33.279Z,100624.28
2022-12-15T04:19:18.681Z,100637.38
2022-12-15T04:21:45.774Z,100646.22
2022-12-15T04:24:31.666Z,100656.31
2022-12-15T04:27:17.092Z,100650.63
2022-12-15T04:30:02.450Z,100644.34
2022-12-15T04:32:49.841Z,100656.69
2022-12-15T04:35:37.401Z,100641.81
2022-12-15T04:38:22.780Z,100674.69
2022-12-15T04:41:08.545Z,100678.34
2022-12-15T04:43:54.131Z,100677.72
2022-12-15T04:46:39.612Z,100672.81
2022-12-15T04:49:25.735Z,100666.88
2022-12-15T04:52:11.127Z,100655.03
2022-12-15T04:54:56.515Z,100645.88
2022-12-15T04:57:41.948Z,100659.31
2022-12-15T05:00:28.424Z,100652.53
2022-12-15T05:03:29.961Z,100663.72
2022-12-15T05:06:17.236Z,100664.75
2022-12-15T05:09:02.622Z,100668.66
2022-12-15T05:11:48.567Z,100675.47
2022-12-15T05:14:33.883Z,100667.91
2022-12-15T05:17:19.221Z,100673.06
2022-12-15T05:20:04.685Z,100668.13
2022-12-15T05:22:49.964Z,100666.13
2022-12-15T05:25:36.298Z,100666.13
2022-12-15T05:28:27.426Z,100664.00
2022-12-15T05:31:13.010Z,100674.84
2022-12-15T05:33:40.269Z,100680.75
2022-12-15T05:36:07.758Z,100672.56
2022-12-15T05:38:35.556Z,100674.47
2022-12-15T05:41:02.841Z,100676.22
2022-12-15T05:43:30.378Z,100675.47
2022-12-15T05:46:03.149Z,100678.22
2022-12-15T05:48:30.173Z,100679.25
2022-12-15T05:50:57.156Z,100674.97
2022-12-15T05:53:24.184Z,100679.88
2022-12-15T05:55:51.189Z,100687.19
2022-12-15T05:58:18.211Z,100673.69
2022-12-15T06:00:45.171Z,100696.13
2022-12-15T06:03:12.272Z,100704.44
2022-12-15T06:05:40.121Z,100714.28
2022-12-15T06:08:07.425Z,100712.22
2022-12-15T06:10:34.428Z,100711.47
2022-12-15T06:13:01.748Z,100715.91
2022-12-15T06:15:28.748Z,100712.00
2022-12-15T06:17:55.837Z,100708.69
2022-12-15T06:20:22.917Z,100710.84
2022-12-15T06:22:50.316Z,100705.34
2022-12-15T06:25:17.784Z,100702.81
2022-12-15T06:27:44.821Z,100709.75
2022-12-15T06:30:12.381Z,100715.16
2022-12-15T06:32:39.689Z,100707.34
2022-12-15T06:35:07.293Z,100714.66
2022-12-15T06:37:35.507Z,100719.81
2022-12-15T06:40:02.720Z,100721.72
2022-12-15T06:42:30.081Z,100716.91
2022-12-15T06:44:57.132Z,100722.84
2022-12-15T06:47:24.118Z,100720.44
2022-12-15T06:49:51.394Z,100723.84
2022-12-15T06:52:18.425Z,100725.50
2022-12-15T06:54:45.474Z,100719.03
2022-12-15T06:57:12.455Z,100727.47
2022-12-15T06:59:39.646Z,100720.91
2022-12-15T07:02:21.112Z,100712.22
2022-12-15T07:04:50.842Z,100729.50
2022-12-15T07:07:17.822Z,100734.06
2022-12-15T07:09:44.816Z,100717.81
2022-12-15T07:12:12.574Z,100735.69
2022-12-15T07:14:39.918Z,100724.75
2022-12-15T07:17:07.158Z,100721.19
2022-12-15T07:19:34.189Z,100707.19
2022-12-15T07:22:01.410Z,100731.56
2022-12-15T07:24:28.684Z,100728.88
2022-12-15T07:26:55.751Z,100727.00
2022-12-15T07:29:23.628Z,100736.31
2022-12-15T07:31:51.099Z,100732.66
2022-12-15T07:34:18.335Z,100722.31
2022-12-15T07:36:51.553Z,100735.94
2022-12-15T07:39:19.294Z,100748.66
2022-12-15T07:41:46.737Z,100743.13
2022-12-15T07:44:14.837Z,100747.78
2022-12-15T07:46:46.729Z,100749.78
2022-12-15T07:49:13.999Z,100746.13
2022-12-15T07:51:41.593Z,100747.75
2022-12-15T07:54:11.395Z,100757.72
2022-12-15T07:56:39.617Z,100756.84
2022-12-15T07:59:07.582Z,100759.38
2022-12-15T08:01:37.801Z,100762.88
2022-12-15T08:04:07.493Z,100767.69
2022-12-15T08:06:35.168Z,100771.19
2022-12-15T08:09:02.324Z,100775.25
2022-12-15T08:11:33.925Z,100778.66
2022-12-15T08:14:03.089Z,100771.34
2022-12-15T08:16:31.782Z,100774.38
2022-12-15T08:18:58.961Z,100768.56
2022-12-15T08:21:26.022Z,100769.44
2022-12-15T08:23:53.161Z,100778.03
2022-12-15T08:26:23.832Z,100777.28
2022-12-15T08:28:54.103Z,100782.69
2022-12-15T08:31:23.268Z,100782.31
2022-12-15T08:33:51.209Z,100789.25
2022-12-15T08:36:19.653Z,100787.88
2022-12-15T08:38:47.207Z,100771.44
2022-12-15T08:41:17.502Z,100790.88
2022-12-15T08:43:48.561Z,100777.25
2022-12-15T08:46:18.352Z,100791.63
2022-12-15T08:48:46.628Z,100798.78
2022-12-15T08:51:14.334Z,100797.41
2022-12-15T08:53:41.571Z,100799.91
2022-12-15T08:56:18.421Z,100799.91
2022-12-15T08:58:46.738Z,100796.00
2022-12-15T09:01:23.941Z,100805.97
2022-12-15T09:03:53.835Z,100798.63
2022-12-15T09:06:24.274Z,100805.19
2022-12-15T09:08:54.803Z,100800.88
2022-12-15T09:11:22.479Z,100794.31
2022-12-15T09:13:49.889Z,100792.47
2022-12-15T09:16:20.918Z,100789.19
2022-12-15T09:18:52.946Z,100793.47
2022-12-15T09:21:26.086Z,100791.16
2022-12-15T09:23:55.905Z,100804.44
2022-12-15T09:26:23.800Z,100808.06
2022-12-15T09:28:51.948Z,100810.59
2022-12-15T09:31:25.218Z,100815.38
2022-12-15T09:33:54.227Z,100802.53
2022-12-15T09:36:22.453Z,100815.56
2022-12-15T09:38:49.820Z,100818.81
2022-12-15T09:41:27.124Z,100818.22
2022-12-15T09:44:15.734Z,100826.41
2022-12-15T09:46:59.706Z,100814.94
2022-12-15T09:49:53.121Z,100824.88
2022-12-15T09:52:25.354Z,100826.22
2022-12-15T09:54:52.905Z,100824.94
2022-12-15T09:57:31.624Z,100835.50
2022-12-15T10:00:16.644Z,100834.31
2022-12-15T10:02:52.590Z,100850.53
2022-12-15T10:06:07.348Z,100856.81
2022-12-15T10:08:30.893Z,100866.06
2022-12-15T10:11:01.701Z,100867.59
2022-12-15T10:13:34.330Z,100862.69
2022-12-15T10:16:16.648Z,100855.75
2022-12-15T10:19:07.454Z,100850.06
2022-12-15T10:21:37.358Z,100840.53
2022-12-15T10:24:31.434Z,100854.53
2022-12-15T10:27:30.236Z,100852.53
2022-12-15T10:30:02.675Z,100848.25
2022-12-15T10:32:50.429Z,100853.34
2022-12-15T10:35:22.992Z,100842.66
2022-12-15T10:37:50.120Z,100847.19
2022-12-15T10:40:19.804Z,100852.47
2022-12-15T10:42:49.369Z,100852.00
2022-12-15T10:45:36.456Z,100848.06
2022-12-15T10:48:06.969Z,100836.94
2022-12-15T10:50:37.479Z,100842.75
2022-12-15T10:53:09.712Z,100836.94
2022-12-15T10:55:42.317Z,100834.63
2022-12-15T10:58:22.486Z,100833.94
2022-12-15T11:01:14.563Z,100836.13
2022-12-15T11:03:42.034Z,100831.69
2022-12-15T11:06:24.215Z,100829.84
2022-12-15T11:08:54.430Z,100824.25
2022-12-15T11:12:03.603Z,100828.91
2022-12-15T11:14:43.802Z,100829.31
2022-12-15T11:17:17.193Z,100788.72
2022-12-15T11:19:52.219Z,100823.34
2022-12-15T11:22:46.504Z,100824.44
2022-12-15T11:25:22.983Z,100819.69
2022-12-15T11:27:54.188Z,100821.06
2022-12-15T11:30:24.458Z,100826.06
2022-12-15T11:32:55.620Z,100822.94
2022-12-15T11:35:30.665Z,100809.59
2022-12-15T11:38:08.828Z,100822.78
2022-12-15T11:40:43.494Z,100818.69
2022-12-15T11:43:31.617Z,100835.41
2022-12-15T11:46:23.066Z,100829.66
2022-12-15T11:49:14.851Z,100832.41
2022-12-15T11:51:50.340Z,100831.34
2022-12-15T11:54:40.495Z,100826.25
2022-12-15T11:57:32.781Z,100825.00
2022-12-15T12:00:19.422Z,100823.22
2022-12-15T12:02:55.747Z,100824.22
2022-12-15T12:05:31.758Z,100828.81
2022-12-15T12:08:27.939Z,100827.84
2022-12-15T12:11:13.630Z,100829.19
2022-12-15T12:14:09.658Z,100825.59
2022-12-15T12:17:01.549Z,100819.72
2022-12-15T12:19:42.927Z,100820.78
2022-12-15T12:22:20.710Z,100814.44
2022-12-15T12:25:14.481Z,100824.31
2022-12-15T12:27:52.971Z,100811.38
2022-12-15T12:30:22.541Z,100819.00
2022-12-15T12:33:03.241Z,100804.69
2022-12-15T12:35:56.072Z,100810.06
2022-12-15T12:38:29.782Z,100799.59
2022-12-15T12:41:20.528Z,100802.56
2022-12-15T12:44:00.816Z,100795.72
2022-12-15T12:46:37.347Z,100793.75
2022-12-15T12:49:18.717Z,100792.97
2022-12-15T12:51:55.115Z,100797.47
2022-12-15T12:54:34.036Z,100794.81
2022-12-15T12:57:01.885Z,100781.44
2022-12-15T12:59:28.847Z,100787.50
2022-12-15T13:02:21.996Z,100788.97
2022-12-15T13:04:52.275Z,100781.94
2022-12-15T13:07:37.772Z,100777.03
2022-12-15T13:10:07.849Z,100777.38
2022-12-15T13:12:59.235Z,100786.47
2022-12-15T13:15:37.289Z,100768.56
2022-12-15T13:18:16.075Z,100773.25
2022-12-15T13:20:45.103Z,100778.94
2022-12-15T13:23:21.918Z,100772.88
2022-12-15T13:25:57.799Z,100768.69
2022-12-15T13:28:35.665Z,100766.31
2022-12-15T13:31:25.240Z,100768.25
2022-12-15T13:33:52.627Z,100764.94
2022-12-15T13:36:38.092Z,100760.31
2022-12-15T13:39:28.076Z,100762.94
2022-12-15T13:42:31.416Z,100774.00
2022-12-15T13:44:48.878Z,100762.53
2022-12-15T13:47:18.850Z,100760.19
2022-12-15T13:50:01.466Z,100757.22
2022-12-15T13:53:16.683Z,100760.91
2022-12-15T13:55:28.239Z,100753.81
2022-12-15T13:58:17.388Z,100763.44
2022-12-15T14:00:58.105Z,100757.91
2022-12-15T14:03:26.422Z,100756.66
2022-12-15T14:08:45.081Z,100746.94
2022-12-15T14:11:51.213Z,100764.25
2022-12-15T14:14:24.386Z,100745.38
2022-12-15T14:16:54.502Z,100749.97
2022-12-15T14:19:21.612Z,100751.75
2022-12-15T14:21:57.061Z,100746.66
2022-12-15T14:24:38.632Z,100752.91
2022-12-15T14:27:10.031Z,100748.09
2022-12-15T14:29:37.154Z,100735.78
2022-12-15T14:32:05.881Z,100741.34
2022-12-15T14:34:39.306Z,100735.28
2022-12-15T14:37:18.888Z,100719.66
2022-12-15T14:39:50.379Z,100737.41
2022-12-15T14:42:23.215Z,100727.03
2022-12-15T14:44:57.519Z,100732.53
2022-12-15T14:47:38.855Z,100729.59
2022-12-15T14:50:13.611Z,100729.50
2022-12-15T14:52:43.450Z,100721.00
2022-12-15T14:55:31.803Z,100708.16
2022-12-15T14:57:59.713Z,100720.88
2022-12-15T15:00:36.717Z,100726.66
2022-12-15T15:03:14.143Z,100755.50
2022-12-15T15:03:19.956Z,100725.47
2022-12-15T15:05:57.918Z,100723.03
2022-12-15T15:08:34.868Z,100732.13
2022-12-15T15:11:21.216Z,100727.56
2022-12-15T15:13:48.423Z,100698.66
2022-12-15T15:16:18.875Z,100733.25
2022-12-15T15:18:51.999Z,100710.03
2022-12-15T15:21:22.751Z,100723.50
2022-12-15T15:24:29.690Z,100722.50
2022-12-15T15:27:35.531Z,100725.22
2022-12-15T15:30:14.616Z,100716.84
2022-12-15T15:32:59.056Z,100712.22
2022-12-15T15:35:30.906Z,100705.97
2022-12-15T15:38:27.161Z,100707.44
2022-12-15T15:40:57.036Z,100704.50
2022-12-15T15:43:25.747Z,100709.59
2022-12-15T15:46:00.654Z,100707.06
2022-12-15T15:48:32.565Z,100694.53
2022-12-15T15:51:00.765Z,100705.25
2022-12-15T15:53:31.745Z,100719.44
2022-12-15T15:56:00.073Z,100717.66
2022-12-15T15:58:27.105Z,100723.13
2022-12-15T16:00:54.190Z,100723.13
2022-12-15T16:03:21.463Z,100724.38
2022-12-15T16:05:48.985Z,100732.91
2022-12-15T16:08:20.011Z,100736.00
2022-12-15T16:10:48.768Z,100728.88
2022-12-15T16:13:25.636Z,100734.81
2022-12-15T16:15:53.363Z,100740.56
2022-12-15T16:18:21.150Z,100742.66
2022-12-15T16:20:50.776Z,100740.09
2022-12-15T16:23:22.173Z,100736.50
2022-12-15T16:25:54.498Z,100738.03
2022-12-15T16:28:30.832Z,100735.56
2022-12-15T16:30:58.879Z,100743.63
2022-12-15T16:33:26.056Z,100730.84
2022-12-15T16:35:53.592Z,100729.53
2022-12-15T16:38:26.761Z,100727.78
2022-12-15T16:40:55.554Z,100730.22
2022-12-15T16:43:26.931Z,100732.66
2022-12-15T16:45:56.322Z,100730.91
2022-12-15T16:48:23.476Z,100727.47
2022-12-15T16:50:53.724Z,100724.28
2022-12-15T16:53:26.700Z,100723.84
2022-12-15T16:55:59.539Z,100729.50
2022-12-15T16:58:28.780Z,100724.88
2022-12-15T17:00:56.130Z,100726.34
2022-12-15T17:03:25.893Z,100729.09
2022-12-15T17:05:56.319Z,100729.41
2022-12-15T17:08:34.707Z,100719.72
2022-12-15T17:11:02.806Z,100732.72
2022-12-15T17:13:45.578Z,100724.03
2022-12-15T17:16:14.483Z,100715.09
2022-12-15T17:18:43.013Z,100726.34
2022-12-15T17:21:11.353Z,100724.13
2022-12-15T17:23:39.960Z,100733.06
2022-12-15T17:26:25.941Z,100728.53
2022-12-15T17:28:56.522Z,100728.44
2022-12-15T17:31:27.682Z,100737.81
2022-12-15T17:33:57.073Z,100742.00
2022-12-15T17:36:26.762Z,100741.91
2022-12-15T17:38:59.164Z,100744.34
2022-12-15T17:41:59.312Z,100735.06
2022-12-15T17:44:35.421Z,100732.34
2022-12-15T17:47:09.178Z,100743.16
2022-12-15T17:49:38.900Z,100746.13
2022-12-15T17:52:28.423Z,100747.91
2022-12-15T17:54:56.312Z,100743.69
2022-12-15T17:57:23.424Z,100746.97
2022-12-15T17:59:50.437Z,100752.91
2022-12-15T18:02:17.649Z,100759.56
2022-12-15T18:04:45.008Z,100748.34
2022-12-15T18:07:16.521Z,100750.59
2022-12-15T18:09:44.227Z,100750.97
2022-12-15T18:12:25.249Z,100768.16
2022-12-15T18:14:53.053Z,100767.19
2022-12-15T18:17:20.699Z,100764.88
2022-12-15T18:19:48.431Z,100756.41
2022-12-15T18:22:23.466Z,100768.53
2022-12-15T18:24:52.818Z,100770.16
2022-12-15T18:27:23.287Z,100779.53
2022-12-15T18:29:50.626Z,100770.47
2022-12-15T18:32:19.234Z,100775.19
2022-12-15T18:34:46.805Z,100773.44
2022-12-15T18:37:16.665Z,100777.19
2022-12-15T18:39:43.888Z,100777.19
2022-12-15T18:42:15.840Z,100775.75
2022-12-15T18:44:47.761Z,100770.81
2022-12-15T18:47:17.142Z,100766.00
2022-12-15T18:49:44.675Z,100774.00
2022-12-15T18:52:17.254Z,100771.25
2022-12-15T18:54:44.934Z,100779.75
2022-12-15T18:57:30.540Z,100774.38
2022-12-15T19:00:18.591Z,100771.19
2022-12-15T19:02:45.810Z,100781.75
2022-12-15T19:05:28.718Z,100792.47
2022-12-15T19:08:13.239Z,100789.03
2022-12-15T19:10:48.288Z,100809.66
2022-12-15T19:13:17.829Z,100781.47
2022-12-15T19:15:45.243Z,100809.66
2022-12-15T19:18:36.603Z,100822.56
2022-12-15T19:21:42.097Z,100821.78
2022-12-15T19:24:54.872Z,100823.66
2022-12-15T19:27:26.539Z,100810.50
2022-12-15T19:29:54.586Z,100824.72
2022-12-15T19:32:22.899Z,100817.22
2022-12-15T19:34:50.251Z,100821.19
2022-12-15T19:37:26.967Z,100815.91
2022-12-15T19:39:57.608Z,100799.81
2022-12-15T19:42:31.173Z,100807.84
2022-12-15T19:44:58.654Z,100799.91
2022-12-15T19:47:25.701Z,100815.34
2022-12-15T19:49:52.923Z,100810.06
2022-12-15T19:52:22.235Z,100812.41
2022-12-15T19:54:50.753Z,100814.94
2022-12-15T19:57:19.390Z,100823.91
2022-12-15T19:59:46.641Z,100823.75
2022-12-15T20:02:19.496Z,100819.13
2022-12-15T20:04:48.109Z,100828.16
2022-12-15T20:07:18.620Z,100811.44
2022-12-15T20:09:46.747Z,100824.31
2022-12-15T20:12:18.502Z,100832.13
2022-12-15T20:14:47.057Z,100823.53
2022-12-15T20:17:14.704Z,100822.19
2022-12-15T20:19:42.924Z,100826.81
2022-12-15T20:22:19.574Z,100822.53
2022-12-15T20:24:47.401Z,100834.94
2022-12-15T20:27:17.055Z,100823.94
2022-12-15T20:29:44.844Z,100819.22
2022-12-15T20:32:20.097Z,100834.72
2022-12-15T20:34:48.012Z,100837.16
2022-12-15T20:37:26.888Z,100843.13
2022-12-15T20:39:57.350Z,100847.97
2022-12-15T20:42:25.291Z,100846.22
2022-12-15T20:44:52.281Z,100846.22
2022-12-15T20:47:24.980Z,100853.06
2022-12-15T20:49:54.188Z,100859.13
2022-12-15T20:52:24.405Z,100844.56
2022-12-15T20:54:52.717Z,100847.88
2022-12-15T20:57:20.290Z,100850.41
2022-12-15T20:59:47.680Z,100863.41
2022-12-15T21:02:20.443Z,100851.19
2022-12-15T21:04:48.291Z,100850.75
2022-12-15T21:07:15.505Z,100855.13
2022-12-15T21:09:42.701Z,100845.34
2022-12-15T21:12:28.146Z,100836.06
2022-12-15T21:14:55.368Z,100842.00
2022-12-15T21:17:24.312Z,100845.50
2022-12-15T21:19:52.118Z,100818.72
2022-12-15T21:22:23.762Z,100838.56
2022-12-15T21:24:53.058Z,100835.94
2022-12-15T21:27:21.488Z,100846.84
2022-12-15T21:29:52.706Z,100856.69
2022-12-15T21:32:21.141Z,100846.13
2022-12-15T21:34:49.738Z,100850.41
2022-12-15T21:37:28.467Z,100851.09
2022-12-15T21:39:56.525Z,100852.63
2022-12-15T21:42:24.275Z,100863.44
2022-12-15T21:44:51.290Z,100854.50
2022-12-15T21:47:24.835Z,100868.28
2022-12-15T21:49:52.338Z,100880.28
2022-12-15T21:52:21.157Z,100878.00
2022-12-15T21:54:48.271Z,100867.19
2022-12-15T21:57:15.270Z,100867.59
2022-12-15T21:59:42.933Z,100863.63
2022-12-15T22:02:25.406Z,100869.09
2022-12-15T22:04:52.727Z,100869.09
2022-12-15T22:07:22.092Z,100880.25
2022-12-15T22:09:49.276Z,100879.47
2022-12-15T22:12:25.667Z,100865.56
2022-12-15T22:14:52.837Z,100857.84
2022-12-15T22:17:22.041Z,100865.09
2022-12-15T22:19:49.290Z,100860.91
2022-12-15T22:22:16.597Z,100876.56
2022-12-15T22:24:43.745Z,100881.94
2022-12-15T22:27:22.591Z,100870.81
2022-12-15T22:29:50.401Z,100877.97
2022-12-15T22:32:18.054Z,100889.09
2022-12-15T22:34:46.102Z,100873.97
2022-12-15T22:37:13.132Z,100870.66
2022-12-15T22:39:40.212Z,100871.44
2022-12-15T22:42:08.467Z,100872.44
2022-12-15T22:44:37.667Z,100872.31
2022-12-15T22:47:10.388Z,100869.97
2022-12-15T22:49:40.088Z,100874.19
2022-12-15T22:52:17.099Z,100877.91
2022-12-15T22:54:45.909Z,100878.91
2022-12-15T22:57:21.259Z,100873.59
2022-12-15T22:59:54.737Z,100865.50
2022-12-15T23:02:21.941Z,100869.56
2022-12-15T23:04:49.016Z,100871.78
2022-12-15T23:07:16.030Z,100867.16
2022-12-15T23:09:43.041Z,100877.69
2022-12-15T23:12:10.145Z,100868.66
2022-12-15T23:14:55.813Z,100853.06
2022-12-15T23:17:22.834Z,100868.69
2022-12-15T23:19:49.797Z,100855.16
2022-12-15T23:22:16.794Z,100871.38
2022-12-15T23:24:43.863Z,100874.47
2022-12-15T23:27:11.642Z,100870.94
2022-12-15T23:29:38.681Z,100882.75
2022-12-15T23:32:08.982Z,100872.50
2022-12-15T23:34:36.961Z,100879.34
2022-12-15T23:37:03.979Z,100874.25
2022-12-15T23:39:31.015Z,100875.34
2022-12-15T23:41:58.033Z,100876.88
2022-12-15T23:44:25.079Z,100881.50
2022-12-15T23:46:52.187Z,100882.81
2022-12-15T23:49:19.298Z,100884.69
2022-12-15T23:51:46.309Z,100895.19
2022-12-15T23:54:13.897Z,100886.41
2022-12-15T23:56:41.101Z,100897.53
2022-12-15T23:59:08.134Z,100885.53
